Time;durP1;ratioP1;P1;durP2;ratioP2;P2;SDS_P1;SDS_P2;PMS_P1;PMS_P2;Temp;Humidity;BMP_temperature;BMP_pressure;BME280_temperature;BME280_humidity;BME280_pressure;Samples;Min_cycle;Max_cycle;Signal;HPM_P1;HPM_P2
2024/01/15 00:00:35;;;;;;;46.90;20.47;;;;;;;-2.05;74.41;96467.25;5043261;28;20431;-62
2024/01/15 00:03:03;;;;;;;48.77;21.37;;;;;;;-1.99;74.27;96472.28;5045912;28;20233;-62
2024/01/15 00:05:30;;;;;;;53.47;20.73;;;;;;;-2.96;74.04;96336.81;5044687;28;20200;-62
2024/01/15 00:07:57;;;;;;;47.60;20.17;;;;;;;-2.04;74.41;96478.25;5045761;28;20290;-63
2024/01/15 00:10:24;;;;;;;44.40;20.03;;;;;;;-1.99;73.97;96482.44;5045574;28;20690;-63
2024/01/15 00:12:51;;;;;;;44.30;19.83;;;;;;;-2.28;74.48;96478.38;5045144;28;20611;-63
2024/01/15 00:15:18;;;;;;;41.77;19.77;;;;;;;-2.40;74.60;96481.81;5045827;28;20203;-63
2024/01/15 00:17:45;;;;;;;41.10;19.77;;;;;;;-2.29;74.77;96476.69;5044404;28;20225;-64
2024/01/15 00:20:13;;;;;;;51.70;20.97;;;;;;;-2.21;74.36;96480.88;5045891;28;20228;-63
2024/01/15 00:22:40;;;;;;;39.60;19.27;;;;;;;-2.53;75.11;96472.56;5044603;28;20212;-64
2024/01/15 00:25:07;;;;;;;44.07;20.57;;;;;;;-2.71;75.24;96500.53;5045541;28;20233;-63
2024/01/15 00:27:35;;;;;;;40.77;17.47;;;;;;;-2.69;75.09;96497.16;5044978;28;20536;-63
2024/01/15 00:30:02;;;;;;;33.67;16.63;;;;;;;-2.69;75.77;96465.91;5043340;28;20632;-63
2024/01/15 00:32:31;;;;;;;42.80;20.50;;;;;;;-2.80;75.95;96477.75;5045602;28;20216;-63
2024/01/15 00:34:58;;;;;;;42.23;17.00;;;;;;;-3.00;76.89;96487.09;5043060;28;20203;-62
2024/01/15 00:37:25;;;;;;;49.47;19.20;;;;;;;-3.20;77.36;96488.84;5045395;28;20745;-62
2024/01/15 00:39:52;;;;;;;34.57;14.87;;;;;;;-3.33;78.28;96477.88;5044511;28;20290;-62
2024/01/15 00:42:19;;;;;;;31.20;16.03;;;;;;;-3.39;78.49;96475.34;5045591;28;20229;-62
2024/01/15 00:44:46;;;;;;;31.23;13.63;;;;;;;-3.29;77.77;96466.91;5045185;28;20605;-62
2024/01/15 00:47:13;;;;;;;24.00;12.57;;;;;;;-3.42;78.08;96467.78;5045045;28;20203;-61
2024/01/15 00:49:40;;;;;;;29.47;14.53;;;;;;;-3.37;78.44;96468.59;5045658;28;20260;-62
2024/01/15 00:52:07;;;;;;;30.33;13.63;;;;;;;-3.23;77.98;96471.09;5044360;28;20205;-63
2024/01/15 00:54:34;;;;;;;25.67;12.80;;;;;;;-3.36;78.83;96467.78;5045229;28;20439;-63
2024/01/15 00:57:02;;;;;;;27.53;13.87;;;;;;;-3.36;78.60;96448.34;5043814;28;20723;-63
2024/01/15 00:59:29;;;;;;;34.73;16.40;;;;;;;-3.07;78.01;96472.78;5045131;28;20327;-63
2024/01/15 01:01:56;;;;;;;31.50;16.13;;;;;;;-3.13;78.21;96481.22;5046118;28;20199;-64
2024/01/15 01:04:23;;;;;;;29.33;15.40;;;;;;;-3.02;78.34;96479.50;5048350;28;20194;-64
2024/01/15 01:06:50;;;;;;;25.23;14.43;;;;;;;-2.90;77.66;96474.41;5048724;28;20198;-64
2024/01/15 01:09:18;;;;;;;34.70;17.30;;;;;;;-2.77;77.08;96471.00;5048113;28;20191;-63
2024/01/15 01:11:45;;;;;;;35.87;16.17;;;;;;;-2.86;77.43;96467.63;5049029;28;20196;-64
2024/01/15 01:14:12;;;;;;;38.33;16.00;;;;;;;-2.70;77.66;96479.44;5047652;28;20296;-64
2024/01/15 01:16:39;;;;;;;31.77;14.90;;;;;;;-2.54;76.69;96470.91;5048578;28;20209;-63
2024/01/15 01:19:07;;;;;;;29.93;15.27;;;;;;;-2.67;76.76;96469.25;5047704;28;20217;-64
2024/01/15 01:21:34;;;;;;;34.53;15.77;;;;;;;-2.73;77.41;96446.50;5048264;28;20193;-62
2024/01/15 01:24:02;;;;;;;29.57;16.23;;;;;;;-2.74;77.73;96458.31;5047891;28;20238;-63
2024/01/15 01:26:30;;;;;;;26.80;14.53;;;;;;;-2.88;77.09;96462.59;5045391;28;20207;-62
2024/01/15 01:28:57;;;;;;;29.40;15.57;;;;;;;-3.02;77.98;96450.81;5048322;28;20309;-64
2024/01/15 01:31:24;;;;;;;32.80;14.97;;;;;;;-3.16;78.44;96437.34;5047193;28;20251;-63
2024/01/15 01:33:51;;;;;;;28.23;14.07;;;;;;;-3.45;78.52;96389.34;5048206;28;20286;-63
2024/01/15 01:36:18;;;;;;;25.47;12.37;;;;;;;-3.17;79.10;96450.88;5047204;28;20551;-63
2024/01/15 01:38:46;;;;;;;28.30;14.77;;;;;;;-3.12;78.39;96455.06;5047673;28;20661;-63
2024/01/15 01:41:13;;;;;;;25.57;13.67;;;;;;;-3.11;78.79;96451.66;5047729;28;20289;-62
2024/01/15 01:43:40;;;;;;;26.43;13.63;;;;;;;-3.18;78.68;96441.56;5047195;28;20202;-63
2024/01/15 01:46:07;;;;;;;28.47;13.70;;;;;;;-3.24;78.52;96444.13;5047903;28;20649;-63
2024/01/15 01:48:35;;;;;;;26.37;12.30;;;;;;;-3.22;79.04;96450.03;5046735;28;20205;-63
2024/01/15 01:51:04;;;;;;;26.97;14.30;;;;;;;-3.17;78.09;96433.16;5048008;28;20202;-62
2024/01/15 01:53:35;;;;;;;24.73;13.30;;;;;;;-3.14;78.53;96426.38;5046775;28;20694;-63
2024/01/15 01:56:03;;;;;;;23.47;12.47;;;;;;;-3.00;78.26;96434.78;5047643;28;20735;-63
2024/01/15 01:58:32;;;;;;;24.70;12.57;;;;;;;-2.96;78.41;96433.06;5047458;28;20262;-63
2024/01/15 02:00:59;;;;;;;28.23;13.87;;;;;;;-2.79;77.76;96428.78;5046948;28;20539;-63
2024/01/15 02:03:30;;;;;;;24.57;12.13;;;;;;;-2.78;77.79;96430.47;5047579;28;20194;-63
2024/01/15 02:05:59;;;;;;;24.40;12.60;;;;;;;-2.76;77.68;96426.25;5046222;28;20222;-63
2024/01/15 02:08:26;;;;;;;24.33;11.23;;;;;;;-2.69;77.25;96427.88;5047773;28;20184;-62
2024/01/15 02:10:53;;;;;;;22.27;10.17;;;;;;;-2.66;76.91;96426.19;5046702;28;20193;-64
2024/01/15 02:13:21;;;;;;;22.00;11.90;;;;;;;-2.61;76.98;96418.56;5047444;28;20199;-64
2024/01/15 02:15:48;;;;;;;23.90;11.70;;;;;;;-2.61;76.75;96419.41;5047405;28;20287;-63
2024/01/15 02:18:15;;;;;;;24.40;11.77;;;;;;;-2.51;76.44;96425.25;5046374;28;20260;-64
2024/01/15 02:20:44;;;;;;;30.97;11.20;;;;;;;-2.50;76.28;96422.75;5047241;28;20188;-64
2024/01/15 02:23:15;;;;;;;19.17;10.13;;;;;;;-2.52;76.50;96418.53;5046134;28;20198;-63
2024/01/15 02:25:46;;;;;;;25.37;11.57;;;;;;;-2.44;75.97;96410.88;5047200;28;20207;-64
2024/01/15 02:28:15;;;;;;;28.90;13.47;;;;;;;-2.27;75.61;96409.09;5046282;28;20247;-64
2024/01/15 02:30:43;;;;;;;27.20;13.03;;;;;;;-2.28;75.09;96404.84;5046733;28;20193;-64
2024/01/15 02:33:11;;;;;;;23.80;13.17;;;;;;;-2.34;75.26;96413.34;5046877;28;20583;-63
2024/01/15 02:35:39;;;;;;;28.90;13.53;;;;;;;-2.21;74.45;96394.69;5046065;28;20309;-63
2024/01/15 02:38:07;;;;;;;26.87;13.63;;;;;;;-2.15;74.25;96414.91;5046805;28;20797;-63
2024/01/15 02:40:35;;;;;;;28.70;14.23;;;;;;;-2.28;73.82;96403.16;5045839;28;20202;-63
2024/01/15 02:43:02;;;;;;;31.53;14.90;;;;;;;-2.28;74.40;96395.56;5047139;28;20198;-63
2024/01/15 02:45:30;;;;;;;33.43;14.77;;;;;;;-2.45;75.22;96399.88;5045824;28;20223;-62
2024/01/15 02:47:57;;;;;;;30.50;14.17;;;;;;;-2.34;74.11;96400.66;5045253;28;20684;-62
2024/01/15 02:50:24;;;;;;;29.83;15.47;;;;;;;-2.43;74.38;96393.09;5046353;28;20662;-63
2024/01/15 02:52:52;;;;;;;29.03;14.67;;;;;;;-2.44;73.90;96401.59;5046265;28;20205;-63
2024/01/15 02:55:19;;;;;;;35.27;15.47;;;;;;;-2.44;73.87;96404.13;5046877;28;20243;-63
2024/01/15 02:57:46;;;;;;;37.13;16.13;;;;;;;-2.35;73.12;96401.53;5045354;28;20629;-63
2024/01/15 03:00:14;;;;;;;28.43;15.67;;;;;;;-2.47;73.12;96404.97;5046686;28;20736;-62
2024/01/15 03:02:43;;;;;;;28.70;15.17;;;;;;;-2.53;73.22;96391.47;5045608;28;20230;-63
2024/01/15 03:05:14;;;;;;;36.40;16.57;;;;;;;-2.38;72.81;96413.38;5045114;28;20187;-63
2024/01/15 03:07:42;;;;;;;34.87;19.17;;;;;;;-2.27;71.84;96417.53;5046013;28;20298;-63
2024/01/15 03:10:09;;;;;;;35.20;17.60;;;;;;;-2.81;72.84;96421.19;5045784;28;20195;-64
2024/01/15 03:12:36;;;;;;;34.97;16.30;;;;;;;-2.91;73.56;96404.34;5046602;28;20200;-63
2024/01/15 03:15:04;;;;;;;33.77;16.97;;;;;;;-2.81;73.47;96405.16;5045076;28;20202;-63
2024/01/15 03:17:31;;;;;;;31.27;15.93;;;;;;;-2.84;73.06;96412.75;5046533;28;20661;-63
2024/01/15 03:19:58;;;;;;;35.50;19.80;;;;;;;-2.71;72.28;96406.78;5045552;28;20200;-62
2024/01/15 03:22:26;;;;;;;32.20;16.50;;;;;;;-3.07;73.15;96397.66;5046021;28;20206;-62
2024/01/15 03:24:53;;;;;;;43.20;17.43;;;;;;;-3.18;74.22;96378.28;5045904;28;20237;-63
2024/01/15 03:27:20;;;;;;;32.67;17.13;;;;;;;-3.22;74.92;96401.94;5045448;28;20228;-63
2024/01/15 03:29:47;;;;;;;40.13;18.80;;;;;;;-2.96;75.30;96392.53;5046126;28;20202;-64
2024/01/15 03:32:16;;;;;;;42.77;19.57;;;;;;;-2.89;73.89;96397.59;5045163;28;20201;-64
2024/01/15 03:34:43;;;;;;;36.70;18.43;;;;;;;-2.86;73.80;96396.72;5046094;28;20283;-63
2024/01/15 03:37:10;;;;;;;45.97;18.37;;;;;;;-2.70;73.39;96394.09;5044774;28;20285;-63
2024/01/15 03:39:37;;;;;;;41.83;19.53;;;;;;;-2.86;73.19;96371.38;5045760;28;20219;-65
2024/01/15 03:42:05;;;;;;;41.97;18.30;;;;;;;-2.76;73.26;96400.91;5045475;28;20202;-63
2024/01/15 03:44:32;;;;;;;44.67;18.20;;;;;;;-2.73;72.81;96399.19;5045311;28;20220;-63
2024/01/15 03:46:59;;;;;;;35.33;16.20;;;;;;;-2.96;73.05;96387.47;5045926;28;20291;-63
2024/01/15 03:49:26;;;;;;;36.77;17.73;;;;;;;-2.68;73.09;96396.66;5045012;28;20328;-64
2024/01/15 03:51:53;;;;;;;38.97;18.63;;;;;;;-2.75;73.17;96389.91;5045875;28;20207;-64
2024/01/15 03:54:20;;;;;;;37.17;19.00;;;;;;;-2.79;73.29;96404.31;5043175;28;20310;-64
2024/01/15 03:56:48;;;;;;;38.07;19.27;;;;;;;-3.17;74.65;96401.06;5045418;28;20196;-63
2024/01/15 03:59:15;;;;;;;40.77;20.07;;;;;;;-3.43;76.65;96401.13;5044908;28;20760;-63
2024/01/15 04:01:48;;;;;;;38.27;18.60;;;;;;;-3.78;78.04;96390.25;5045379;28;20244;-63
2024/01/15 04:04:15;;;;;;;47.53;20.40;;;;;;;-4.05;78.76;96364.97;5045865;28;20194;-63
2024/01/15 04:06:44;;;;;;;39.90;18.63;;;;;;;-3.66;78.79;96394.44;5044865;28;20313;-63
2024/01/15 04:09:14;;;;;;;42.20;19.93;;;;;;;-3.42;77.54;96400.28;5045695;28;20218;-63
2024/01/15 04:11:42;;;;;;;41.93;18.50;;;;;;;-3.17;76.25;96392.66;5043308;28;20297;-64
2024/01/15 04:14:09;;;;;;;43.90;19.33;;;;;;;-3.36;76.70;96399.44;5045630;28;20201;-63
2024/01/15 04:16:37;;;;;;;43.10;18.80;;;;;;;-3.31;77.01;96400.25;5044958;28;20202;-63
2024/01/15 04:19:04;;;;;;;42.23;19.00;;;;;;;-3.22;76.63;96396.88;5044944;28;20427;-63
2024/01/15 04:22:12;;;;;;;35.03;16.83;;;;;;;-3.51;75.95;96395.25;5045321;28;20250;-63
2024/01/15 04:24:52;;;;;;;38.80;16.03;;;;;;;-3.78;75.82;96394.44;5044123;28;20190;-63
2024/01/15 04:27:19;;;;;;;29.57;12.90;;;;;;;-3.91;76.87;96392.75;5045292;28;20285;-62
2024/01/15 04:29:47;;;;;;;33.17;15.57;;;;;;;-3.84;77.26;96390.25;5044726;28;20191;-62
2024/01/15 04:32:14;;;;;;;36.73;14.50;;;;;;;-3.70;77.31;96387.69;5044396;28;20191;-64
2024/01/15 04:34:41;;;;;;;35.93;15.00;;;;;;;-3.56;77.29;96402.00;5045129;28;20252;-64
2024/01/15 04:37:08;;;;;;;38.07;14.63;;;;;;;-3.37;77.50;96396.06;5046295;28;20223;-64
2024/01/15 04:39:35;;;;;;;32.07;13.33;;;;;;;-3.28;76.64;96389.28;5049565;28;20237;-64
2024/01/15 04:42:03;;;;;;;32.37;14.03;;;;;;;-3.16;76.32;96386.72;5049499;28;20240;-64
2024/01/15 04:44:30;;;;;;;36.27;15.20;;;;;;;-3.06;76.21;96393.44;5049146;28;20206;-62
2024/01/15 04:46:57;;;;;;;36.17;15.87;;;;;;;-3.03;74.90;96388.38;5048601;28;20235;-63
2024/01/15 04:49:27;;;;;;;34.23;17.17;;;;;;;-3.16;75.56;96382.50;5048406;28;20205;-63
2024/01/15 04:51:54;;;;;;;34.30;17.20;;;;;;;-3.08;75.59;96395.13;5049327;28;20600;-64
2024/01/15 04:54:21;;;;;;;40.50;17.57;;;;;;;-3.03;75.30;96395.97;5047787;28;20233;-64
2024/01/15 04:56:48;;;;;;;35.57;16.00;;;;;;;-2.91;74.81;96391.69;5048803;28;20273;-64
2024/01/15 04:59:15;;;;;;;43.27;15.90;;;;;;;-2.91;75.19;96398.44;5047782;28;20228;-64
2024/01/15 05:01:42;;;;;;;45.90;17.63;;;;;;;-2.92;74.51;96395.06;5048688;28;20248;-64
2024/01/15 05:04:09;;;;;;;38.20;16.90;;;;;;;-2.91;75.16;96384.09;5048198;28;20593;-64
2024/01/15 05:06:37;;;;;;;34.43;16.40;;;;;;;-2.69;75.03;96384.81;5048673;28;20692;-64
2024/01/15 05:09:04;;;;;;;40.40;15.20;;;;;;;-2.88;74.56;96373.09;5046725;28;20193;-64
2024/01/15 05:11:31;;;;;;;36.80;17.33;;;;;;;-2.76;75.18;96394.13;5047133;28;20278;-63
2024/01/15 05:13:59;;;;;;;33.17;16.40;;;;;;;-2.69;74.54;96384.81;5048309;28;20204;-64
2024/01/15 05:16:26;;;;;;;43.53;17.60;;;;;;;-2.55;74.01;96388.13;5044809;28;20212;-64
2024/01/15 05:18:53;;;;;;;63.03;22.30;;;;;;;-2.56;73.13;96377.16;5048405;28;20221;-64
2024/01/15 05:21:20;;;;;;;43.27;18.80;;;;;;;-2.62;73.22;96367.03;5048045;28;20204;-65
2024/01/15 05:23:47;;;;;;;47.53;21.53;;;;;;;-3.08;73.71;96382.47;5048435;28;20275;-64
2024/01/15 05:26:14;;;;;;;45.20;19.53;;;;;;;-3.30;74.11;96358.94;5048654;28;20236;-64
2024/01/15 05:28:42;;;;;;;54.20;22.53;;;;;;;-3.32;74.61;96365.69;5047516;28;20210;-64
2024/01/15 05:31:10;;;;;;;54.90;24.70;;;;;;;-3.14;75.41;96365.63;5045484;28;20188;-63
2024/01/15 05:33:37;;;;;;;57.67;25.87;;;;;;;-3.01;75.08;96364.69;5046802;28;20519;-65
2024/01/15 05:36:05;;;;;;;52.93;24.47;;;;;;;-3.16;74.77;96379.13;5048315;28;20187;-65
2024/01/15 05:38:33;;;;;;;59.57;25.30;;;;;;;-3.02;74.83;96370.63;5045621;28;20715;-63
2024/01/15 05:41:00;;;;;;;61.27;25.87;;;;;;;-2.92;73.30;96371.41;5047036;28;20215;-63
2024/01/15 05:43:27;;;;;;;53.27;25.03;;;;;;;-3.13;73.62;96356.34;5045807;28;20229;-64
2024/01/15 05:45:54;;;;;;;66.47;26.43;;;;;;;-3.04;73.74;96356.28;5047002;28;20202;-64
2024/01/15 05:48:21;;;;;;;58.37;26.53;;;;;;;-3.27;74.19;96348.78;5046373;28;20196;-64
2024/01/15 05:50:48;;;;;;;55.30;23.97;;;;;;;-3.15;74.11;96350.44;5046609;28;20292;-64
2024/01/15 05:53:15;;;;;;;57.07;27.23;;;;;;;-3.12;74.04;96358.84;5048029;28;20203;-65
2024/01/15 05:55:42;;;;;;;57.20;23.93;;;;;;;-2.97;74.09;96363.03;5044927;28;20225;-65
2024/01/15 05:58:09;;;;;;;50.47;22.87;;;;;;;-3.01;73.39;96357.09;5046930;28;20222;-63
2024/01/15 06:00:38;;;;;;;53.83;20.50;;;;;;;-3.21;73.54;96348.75;5047004;28;20215;-63
2024/01/15 06:03:05;;;;;;;46.83;19.60;;;;;;;-3.26;73.83;96342.03;5043568;28;20199;-64
2024/01/15 06:05:32;;;;;;;41.13;17.20;;;;;;;-3.25;73.90;96352.16;5047729;28;20222;-64
2024/01/15 06:07:59;;;;;;;34.67;15.43;;;;;;;-3.24;73.84;96350.47;5046012;28;20208;-63
2024/01/15 06:10:26;;;;;;;38.63;15.90;;;;;;;-3.37;74.20;96358.09;5046365;28;20607;-62
2024/01/15 06:12:53;;;;;;;37.33;14.97;;;;;;;-3.41;75.09;96361.50;5046564;28;20619;-63
2024/01/15 06:15:21;;;;;;;38.93;16.90;;;;;;;-3.33;74.68;96353.88;5047988;28;20212;-64
2024/01/15 06:17:48;;;;;;;39.17;16.50;;;;;;;-3.44;74.18;96361.50;5047270;28;20626;-63
2024/01/15 06:20:15;;;;;;;33.30;13.37;;;;;;;-3.89;75.12;96326.19;5028969;28;20202;-63
2024/01/15 06:22:42;;;;;;;29.40;11.80;;;;;;;-4.05;75.95;96344.75;5045983;28;20215;-63
2024/01/15 06:25:09;;;;;;;31.90;12.63;;;;;;;-4.24;76.97;96348.09;5046397;28;20188;-63
2024/01/15 06:27:36;;;;;;;28.73;12.33;;;;;;;-4.10;77.42;96371.69;5047104;28;20206;-63
2024/01/15 06:30:04;;;;;;;26.90;12.50;;;;;;;-4.04;77.36;96353.19;5045880;28;20194;-64
2024/01/15 06:32:32;;;;;;;32.93;13.20;;;;;;;-3.75;77.27;96354.81;5047163;28;20221;-62
2024/01/15 06:35:00;;;;;;;29.30;12.17;;;;;;;-3.68;77.21;96336.25;5046410;28;20764;-64
2024/01/15 06:37:27;;;;;;;26.87;12.40;;;;;;;-3.36;76.13;96353.91;5046624;28;20186;-62
2024/01/15 06:39:54;;;;;;;29.40;13.00;;;;;;;-3.28;75.60;96353.84;5046532;28;20229;-63
2024/01/15 06:42:21;;;;;;;31.23;13.30;;;;;;;-3.19;75.67;96333.59;5046061;28;20396;-63
2024/01/15 06:44:49;;;;;;;33.43;14.60;;;;;;;-2.84;75.10;96360.41;5047488;28;20233;-63
2024/01/15 06:47:17;;;;;;;34.13;14.20;;;;;;;-2.83;74.71;96361.25;5044705;28;20203;-64
2024/01/15 06:49:44;;;;;;;46.00;17.37;;;;;;;-3.08;74.80;96336.88;5045569;28;20208;-64
2024/01/15 06:52:12;;;;;;;46.00;19.67;;;;;;;-2.84;74.06;96339.28;5045650;28;20220;-63
2024/01/15 06:54:41;;;;;;;53.70;20.70;;;;;;;-2.59;74.03;96356.03;5046115;28;20261;-64
2024/01/15 06:57:08;;;;;;;45.23;20.83;;;;;;;-2.62;73.00;96336.63;5046561;28;20210;-64
2024/01/15 06:59:35;;;;;;;44.73;20.23;;;;;;;-2.51;73.26;96354.31;5043509;28;20312;-65
2024/01/15 07:02:02;;;;;;;41.87;19.60;;;;;;;-2.66;73.49;96356.94;5046888;28;20200;-63
2024/01/15 07:04:30;;;;;;;46.87;20.03;;;;;;;-2.73;73.90;96353.59;5027591;28;20688;-63
2024/01/15 07:06:57;;;;;;;46.47;20.10;;;;;;;-2.73;74.08;96327.41;5046705;28;20257;-64
2024/01/15 07:09:25;;;;;;;42.70;20.90;;;;;;;-2.51;74.05;96366.97;5044299;28;20212;-65
2024/01/15 07:11:52;;;;;;;40.83;20.63;;;;;;;-2.43;73.67;96356.81;5046353;28;20227;-65
2024/01/15 07:14:20;;;;;;;43.70;19.67;;;;;;;-2.32;73.50;96360.09;5046451;28;20231;-63
2024/01/15 07:16:47;;;;;;;44.43;21.20;;;;;;;-2.47;73.24;96345.00;5045381;28;20701;-64
2024/01/15 07:19:15;;;;;;;38.40;19.20;;;;;;;-2.33;73.92;96355.88;5046339;28;20254;-63
2024/01/15 07:21:43;;;;;;;47.53;21.17;;;;;;;-1.93;74.20;96359.78;5045599;28;20276;-64
2024/01/15 07:24:11;;;;;;;46.50;22.60;;;;;;;-1.81;72.96;96344.44;5045075;28;20186;-64
2024/01/15 07:26:38;;;;;;;49.63;21.53;;;;;;;-1.67;72.87;96330.78;5045519;28;20624;-62
2024/01/15 07:29:06;;;;;;;45.13;21.07;;;;;;;-1.20;72.13;96350.59;5046704;28;20200;-67
2024/01/15 07:31:33;;;;;;;36.00;17.27;;;;;;;-1.20;71.28;96352.28;5045077;28;20184;-64
2024/01/15 07:34:02;;;;;;;32.33;16.43;;;;;;;-1.12;72.03;96355.59;5045861;28;20632;-67
2024/01/15 07:36:29;;;;;;;37.70;19.07;;;;;;;-1.05;70.81;96359.75;5044113;28;20195;-64
2024/01/15 07:38:56;;;;;;;41.63;17.57;;;;;;;-0.87;70.86;96360.34;5043059;28;20227;-65
2024/01/15 07:41:23;;;;;;;42.90;18.43;;;;;;;-0.65;70.69;96363.47;5044334;28;20523;-64
2024/01/15 07:43:50;;;;;;;39.47;17.87;;;;;;;-0.69;70.50;96364.34;5044513;28;20596;-64
2024/01/15 07:46:18;;;;;;;39.07;17.77;;;;;;;-0.61;69.88;96360.00;5043228;28;20275;-64
2024/01/15 07:48:45;;;;;;;38.53;17.57;;;;;;;-0.46;70.00;96357.28;5044827;28;20212;-63
2024/01/15 07:51:12;;;;;;;44.87;19.40;;;;;;;-0.32;69.96;96359.59;5042658;28;20189;-63
2024/01/15 07:53:39;;;;;;;34.97;15.47;;;;;;;-0.41;69.04;96365.66;5045296;28;20225;-62
2024/01/15 07:56:06;;;;;;;36.20;16.73;;;;;;;-0.53;70.81;96362.44;5043884;28;20790;-62
2024/01/15 07:58:34;;;;;;;38.70;18.57;;;;;;;-0.51;70.64;96366.66;5043523;28;20757;-63
2024/01/15 08:01:01;;;;;;;36.87;17.27;;;;;;;-0.54;71.03;96360.78;5043727;28;20244;-63
2024/01/15 08:03:28;;;;;;;38.60;17.13;;;;;;;-0.51;72.02;96360.72;5044918;28;20284;-64
2024/01/15 08:05:57;;;;;;;33.83;15.40;;;;;;;-0.78;71.33;96292.50;5043926;28;20616;-63
2024/01/15 08:08:26;;;;;;;32.03;15.20;;;;;;;-0.33;71.07;96360.47;5044235;28;20238;-64
2024/01/15 08:10:53;;;;;;;32.23;14.47;;;;;;;-0.18;70.62;96356.00;5045331;28;20203;-63
2024/01/15 08:13:20;;;;;;;43.10;15.57;;;;;;;-0.03;71.01;96348.13;5047662;28;20672;-63
2024/01/15 08:15:50;;;;;;;34.53;15.57;;;;;;;0.13;70.28;96358.03;5049750;28;20201;-63
2024/01/15 08:18:17;;;;;;;26.17;12.43;;;;;;;0.18;71.09;96358.81;5048295;28;20292;-64
2024/01/15 08:20:44;;;;;;;28.40;13.33;;;;;;;0.29;70.00;96369.69;5049008;28;20797;-64
2024/01/15 08:23:14;;;;;;;26.83;12.27;;;;;;;0.26;70.12;96350.19;5048689;28;20685;-63
2024/01/15 08:25:44;;;;;;;26.83;12.40;;;;;;;0.23;70.60;96373.16;5049079;28;20220;-63
2024/01/15 08:28:11;;;;;;;23.63;12.00;;;;;;;0.32;69.50;96364.53;5049396;28;20208;-64
2024/01/15 08:30:38;;;;;;;26.63;14.03;;;;;;;0.25;71.20;96357.88;5048033;28;20201;-64
2024/01/15 08:33:06;;;;;;;24.87;12.70;;;;;;;0.42;71.70;96378.78;5049411;28;20802;-63
2024/01/15 08:35:45;;;;;;;23.50;12.97;;;;;;;0.42;70.62;96376.22;5046528;28;20768;-64
2024/01/15 08:38:12;;;;;;;25.63;13.03;;;;;;;0.36;69.88;96371.25;5048568;28;20213;-65
2024/01/15 08:40:39;;;;;;;28.37;13.93;;;;;;;0.49;71.17;96370.19;5047714;28;20298;-64
2024/01/15 08:43:06;;;;;;;30.97;12.97;;;;;;;0.30;71.78;96333.16;5048538;28;20225;-64
2024/01/15 08:45:33;;;;;;;27.17;13.30;;;;;;;0.78;71.40;96362.84;5049095;28;20711;-65
2024/01/15 08:48:01;;;;;;;30.07;15.07;;;;;;;0.85;71.41;96366.94;5047749;28;20229;-65
2024/01/15 08:50:29;;;;;;;22.63;12.07;;;;;;;0.99;70.27;96344.56;5048775;28;20216;-65
2024/01/15 08:52:56;;;;;;;27.87;13.37;;;;;;;1.11;69.61;96362.19;5046078;28;20221;-64
2024/01/15 08:55:23;;;;;;;34.03;14.77;;;;;;;1.00;71.18;96356.47;5048631;28;20218;-65
2024/01/15 08:57:51;;;;;;;24.77;13.63;;;;;;;1.21;69.28;96353.50;5047653;28;20679;-64
2024/01/15 09:00:18;;;;;;;32.10;14.43;;;;;;;1.17;69.78;96356.97;5046505;28;20716;-64
2024/01/15 09:02:46;;;;;;;28.23;15.80;;;;;;;1.28;69.34;96362.69;5048403;28;20209;-64
2024/01/15 09:05:13;;;;;;;26.17;14.23;;;;;;;1.30;68.71;96337.16;5029373;28;20647;-65
2024/01/15 09:07:40;;;;;;;33.17;16.13;;;;;;;1.53;68.18;96358.75;5048688;28;20328;-64
2024/01/15 09:10:10;;;;;;;25.93;13.83;;;;;;;1.69;67.57;96332.91;5046113;28;20301;-65
2024/01/15 09:12:37;;;;;;;26.03;12.83;;;;;;;1.72;67.66;96343.03;5049064;28;20309;-65
2024/01/15 09:15:06;;;;;;;28.30;13.37;;;;;;;1.89;66.79;96328.16;5047996;28;20202;-65
2024/01/15 09:17:33;;;;;;;28.70;15.10;;;;;;;2.03;65.92;96310.81;5046841;28;20263;-64
2024/01/15 09:20:01;;;;;;;29.90;14.73;;;;;;;1.99;65.52;96293.88;5048136;28;20228;-65
2024/01/15 09:22:29;;;;;;;34.47;15.13;;;;;;;2.27;65.58;96317.84;5028991;28;20212;-64
2024/01/15 09:24:57;;;;;;;36.73;17.90;;;;;;;2.61;65.14;96313.56;5048084;28;20198;-63
2024/01/15 09:27:26;;;;;;;30.03;17.17;;;;;;;2.52;64.81;96275.47;5047416;28;20201;-64
2024/01/15 09:29:53;;;;;;;32.50;16.37;;;;;;;2.79;64.66;96299.44;5048134;28;20953;-64
2024/01/15 09:32:20;;;;;;;24.97;13.87;;;;;;;2.86;64.99;96291.59;5047493;28;20247;-63
2024/01/15 09:34:47;;;;;;;31.60;16.07;;;;;;;2.87;63.93;96288.13;5047747;28;20225;-63
2024/01/15 09:37:14;;;;;;;31.17;15.27;;;;;;;2.81;64.56;96288.31;5047492;28;20281;-65
2024/01/15 09:40:02;;;;;;;33.50;16.47;;;;;;;2.95;64.67;96263.19;5046603;28;20228;-65
2024/01/15 09:42:30;;;;;;;40.97;19.20;;;;;;;2.96;64.34;96259.75;5047833;28;20284;-63
2024/01/15 09:44:58;;;;;;;36.27;17.60;;;;;;;3.01;63.55;96263.00;5045616;28;20209;-64
2024/01/15 09:47:25;;;;;;;31.67;15.37;;;;;;;3.07;62.71;96262.00;5047483;28;20247;-64
2024/01/15 09:49:52;;;;;;;28.03;13.97;;;;;;;3.10;62.42;96247.41;5047144;28;20204;-64
2024/01/15 09:52:21;;;;;;;26.97;15.17;;;;;;;3.19;62.14;96236.88;5047103;28;20284;-64
2024/01/15 09:54:49;;;;;;;28.83;14.33;;;;;;;3.41;61.66;96249.03;5047090;28;20233;-64
2024/01/15 09:57:16;;;;;;;31.63;16.43;;;;;;;3.40;62.13;96237.94;5046786;28;20665;-64
2024/01/15 09:59:44;;;;;;;45.87;19.57;;;;;;;3.48;61.39;96224.94;5046509;28;20240;-64
2024/01/15 10:02:17;;;;;;;34.53;17.70;;;;;;;3.68;60.52;96214.91;5045091;28;20719;-65
2024/01/15 10:04:44;;;;;;;36.20;19.60;;;;;;;3.50;60.28;96185.63;5047167;28;20282;-64
2024/01/15 10:07:19;;;;;;;26.83;14.73;;;;;;;3.60;60.39;96201.50;5046436;28;20224;-64
2024/01/15 10:09:47;;;;;;;37.17;17.00;;;;;;;3.62;60.94;96215.09;5046544;28;20279;-64
2024/01/15 10:12:14;;;;;;;34.63;17.03;;;;;;;3.59;61.07;96195.56;5047043;28;20194;-64
2024/01/15 10:14:43;;;;;;;39.83;18.93;;;;;;;3.83;60.59;96199.06;5011298;28;20194;-64
2024/01/15 10:17:17;;;;;;;34.20;17.50;;;;;;;3.79;61.29;96193.16;5047223;28;20630;-62
2024/01/15 10:19:47;;;;;;;29.50;14.37;;;;;;;3.90;61.75;96180.88;5045827;28;20217;-65
2024/01/15 10:22:17;;;;;;;29.20;14.30;;;;;;;3.81;61.10;96181.16;5046975;28;20229;-63
2024/01/15 10:24:46;;;;;;;26.63;14.50;;;;;;;3.93;61.46;96183.34;5046585;28;20213;-63
2024/01/15 10:27:16;;;;;;;33.43;14.57;;;;;;;3.93;59.64;96187.63;5046394;28;20234;-63
2024/01/15 10:29:43;;;;;;;25.07;13.93;;;;;;;3.91;58.25;96167.19;5045577;28;20192;-64
2024/01/15 10:32:11;;;;;;;33.87;16.77;;;;;;;3.98;59.07;96172.91;5045353;28;20205;-64
2024/01/15 10:35:18;;;;;;;34.13;16.23;;;;;;;4.02;59.67;96177.03;5045444;28;20194;-64
2024/01/15 10:38:39;;;;;;;33.07;17.17;;;;;;;4.08;59.10;96174.28;5046009;28;20190;-64
2024/01/15 10:41:59;;;;;;;36.57;17.30;;;;;;;4.18;57.99;96164.56;5043391;28;20219;-65
2024/01/15 10:45:20;;;;;;;33.23;16.93;;;;;;;4.26;57.27;96170.25;5046130;28;20193;-64
2024/01/15 10:48:41;;;;;;;28.97;14.40;;;;;;;4.69;56.18;96157.56;5045940;28;20284;-65
2024/01/15 10:52:01;;;;;;;30.90;16.70;;;;;;;4.77;55.77;96158.09;5046291;28;20194;-65
2024/01/15 10:55:22;;;;;;;30.40;15.43;;;;;;;4.48;56.01;96136.09;5030600;28;20295;-63
2024/01/15 10:58:43;;;;;;;30.73;14.20;;;;;;;4.51;56.03;96125.75;5025177;28;20667;-62
2024/01/15 11:02:04;;;;;;;28.57;11.93;;;;;;;4.74;56.44;96118.03;5025836;28;20707;-63
2024/01/15 11:05:25;;;;;;;32.83;12.93;;;;;;;5.13;55.38;96095.13;5038969;28;20199;-63
2024/01/15 11:08:45;;;;;;;24.67;12.10;;;;;;;5.37;55.95;96090.75;5038594;28;20196;-64
2024/01/15 11:12:06;;;;;;;25.40;11.70;;;;;;;5.39;54.98;96083.81;5025553;28;20188;-64
2024/01/15 11:15:29;;;;;;;20.47;10.50;;;;;;;5.38;54.86;96080.41;5024876;28;20258;-63
2024/01/15 11:18:49;;;;;;;24.67;11.70;;;;;;;5.58;54.60;96071.91;5025554;28;20645;-65
2024/01/15 11:22:11;;;;;;;24.80;9.73;;;;;;;5.93;53.14;96063.56;5025805;28;20287;-64
2024/01/15 11:25:35;;;;;;;21.83;11.17;;;;;;;6.06;52.91;96067.25;5024990;28;20624;-64
2024/01/15 11:29:08;;;;;;;30.20;11.60;;;;;;;6.18;53.02;96059.00;5024581;28;20739;-63
2024/01/15 11:31:48;;;;;;;27.90;12.10;;;;;;;6.34;51.77;96062.56;5025044;28;20191;-63
2024/01/15 11:35:16;;;;;;;27.80;12.80;;;;;;;6.24;51.98;96045.91;5025358;28;20205;-63
2024/01/15 11:38:48;;;;;;;26.93;13.63;;;;;;;6.37;52.12;96059.84;5023471;28;20284;-64